Jeffersonville, OH

10:40 AM EDT on October 23, 2014 (GMT -0400)
Airborne | Change Station
CLOSE
Current Station
Airport
Location: Wilmington,
Elevation: 1076 ft
Nearby Weather Stations

Elev 1076 ft 39.42 °N, 83.82 °W | Updated 46 minutes ago

Clear
Clear
47 °F
Feels Like 47 °F
N
7
Wind Variable Wind from NNE

Today
High -- | Low -- °F
--% Chance of Precip.
Yesterday
High -- | Low -- °F
Precip. -- in
7:52 AM 6:43 PM
Waning Crescent, 0% visible
Pressure 30.29 in
Visibility 8.0 miles
Clouds Clear
Dew Point 40 °F
Humidity 77%
Rainfall 0.00 in
Snow Depth Not available.
UV 2 out of 12
Pollen .90 out of 12
Air Quality Not available.
Flu Activity Sporadic
METAR KILN 231354Z AUTO 02006KT 8SM CLR 08/04 A3025 RMK AO2 SLP256 T00830044

More Conditions Fewer Conditions

Pressure 30.29 in
Visibility 8.0 miles
Clouds Clear
Dew Point 40 °F
Humidity 77%
Rainfall 0.00 in
Snow Depth Not available.
UV 2 out of 12
Pollen .90 out of 12
Air Quality Not available.
Flu Activity Sporadic
METAR KILN 231354Z AUTO 02006KT 8SM CLR 08/04 A3025 RMK AO2 SLP256 T00830044

More Conditions Fewer Conditions

10-Day Weather Forecast

Almanac

Astronomy

Oct. 23, 2014 Rise Set
Actual Time 7:52 AM EDT 6:43 PM EDT
Civil Twilight 7:25 AM EDT 7:11 PM EDT
Nautical Twilight 6:53 AM EDT 7:42 PM EDT
Astronomical Twilight 6:22 AM EDT 8:13 PM EDT
Moon 7:31 AM EDT 6:44 PM EDT
Length of Visible Light 11h 45m
Length of Day
10h 50m
Tomorrow will be 2m 25s shorter.
Waning Crescent, 0% of the Moon is Illuminated
Today
Waning Crescent
Oct 23
New
Oct 30
First Quarter
Nov 6
Full
Nov 14
Last Quarter

Today's Extremes

State Highs State Lows

Community

WunderPhotos

Upload Photos

1,764,272 photos uploaded!

WunderBlogs® & News

Nearby

Snow Depth

Station Depth Elevation
No new snow has been reported.

Earthquake Activity

City Distance Mag. Time & Date
No recent earthquake activity has been reported nearby.
Minimum magnitude displayed is 2.5.

Coastal Water Temperatures

Place Temperature
No Stations Reporting

Nearby Weather Stations